Time;durP1;ratioP1;P1;durP2;ratioP2;P2;SDS_P1;SDS_P2;PMS_P1;PMS_P2;Temp;Humidity;BMP_temperature;BMP_pressure;BME280_temperature;BME280_humidity;BME280_pressure;Samples;Min_cycle;Max_cycle;Signal;HPM_P1;HPM_P2
2023/08/21 00:00:51;;;;;;;6.87;6.37;;;;;;;;;;5050131;28;20447;-71
2023/08/21 00:03:17;;;;;;;6.40;6.10;;;;;;;;;;5052565;28;20817;-71
2023/08/21 00:05:43;;;;;;;6.80;6.20;;;;;;;;;;5051338;28;20810;-71
2023/08/21 00:08:08;;;;;;;6.20;5.23;;;;;;;;;;5050914;28;20859;-71
2023/08/21 00:10:37;;;;;;;6.60;6.10;;;;;;;;;;5047189;28;20449;-69
2023/08/21 00:13:03;;;;;;;7.07;6.73;;;;;;;;;;5052135;28;20974;-70
2023/08/21 00:15:29;;;;;;;7.90;5.70;;;;;;;;;;5052055;28;20811;-73
2023/08/21 00:17:57;;;;;;;8.93;5.70;;;;;;;;;;5044741;28;20439;-72
2023/08/21 00:20:22;;;;;;;6.80;4.87;;;;;;;;;;5049436;28;20508;-72
2023/08/21 00:22:48;;;;;;;6.87;6.40;;;;;;;;;;5052527;28;20902;-69
2023/08/21 00:25:15;;;;;;;6.90;6.37;;;;;;;;;;5051652;28;20422;-72
2023/08/21 00:27:41;;;;;;;7.37;6.80;;;;;;;;;;5051441;28;20478;-70
2023/08/21 00:30:07;;;;;;;7.30;6.80;;;;;;;;;;5048800;28;20469;-71
2023/08/21 00:32:33;;;;;;;7.90;7.40;;;;;;;;;;5049392;28;20612;-72
2023/08/21 00:34:59;;;;;;;7.33;6.73;;;;;;;;;;5051058;28;20434;-72
2023/08/21 00:37:25;;;;;;;6.53;6.00;;;;;;;;;;5049371;28;20681;-72
2023/08/21 00:39:51;;;;;;;8.23;7.50;;;;;;;;;;5048929;28;20817;-72
2023/08/21 00:42:17;;;;;;;7.20;6.80;;;;;;;;;;5049453;28;20438;-72
2023/08/21 00:44:43;;;;;;;6.67;6.33;;;;;;;;;;5051567;28;20979;-72
2023/08/21 00:47:10;;;;;;;8.03;7.27;;;;;;;;;;5047419;28;20438;-72
2023/08/21 00:49:36;;;;;;;6.60;6.27;;;;;;;;;;5045227;28;20486;-73
2023/08/21 00:52:02;;;;;;;10.57;6.70;;;;;;;;;;5045336;28;20466;-71
2023/08/21 00:54:29;;;;;;;4.87;4.63;;;;;;;;;;5048418;28;20843;-72
2023/08/21 00:56:55;;;;;;;7.83;6.87;;;;;;;;;;5046924;28;20485;-72
2023/08/21 00:59:21;;;;;;;5.03;4.57;;;;;;;;;;5050240;28;20523;-72
2023/08/21 01:01:47;;;;;;;7.37;6.73;;;;;;;;;;5049480;28;20441;-72
2023/08/21 01:04:13;;;;;;;7.03;5.23;;;;;;;;;;5045262;28;20434;-72
2023/08/21 01:06:39;;;;;;;9.00;8.00;;;;;;;;;;5049269;28;20474;-72
2023/08/21 01:09:09;;;;;;;7.67;7.17;;;;;;;;;;5051225;28;20435;-72
2023/08/21 01:11:54;;;;;;;8.83;5.33;;;;;;;;;;5047181;28;20480;-72
2023/08/21 01:14:28;;;;;;;13.30;8.40;;;;;;;;;;5047538;28;20474;-69
2023/08/21 01:16:56;;;;;;;12.03;8.20;;;;;;;;;;5048733;28;20491;-72
2023/08/21 01:19:26;;;;;;;5.83;5.53;;;;;;;;;;5047609;28;20509;-72
2023/08/21 01:21:53;;;;;;;8.70;7.80;;;;;;;;;;5049976;28;20445;-70
2023/08/21 01:24:22;;;;;;;7.93;7.33;;;;;;;;;;5050027;28;20433;-72
2023/08/21 01:26:47;;;;;;;12.33;7.00;;;;;;;;;;5045837;28;20636;-73
2023/08/21 01:29:13;;;;;;;7.30;6.90;;;;;;;;;;5049947;28;20515;-72
2023/08/21 01:31:41;;;;;;;19.73;7.87;;;;;;;;;;5049407;28;20497;-71
2023/08/21 01:34:10;;;;;;;9.07;8.33;;;;;;;;;;5050599;28;20531;-71
2023/08/21 01:36:36;;;;;;;11.37;7.33;;;;;;;;;;5050134;28;20430;-72
2023/08/21 01:39:02;;;;;;;7.20;6.60;;;;;;;;;;5048664;28;20438;-73
2023/08/21 01:41:28;;;;;;;5.90;5.30;;;;;;;;;;5044982;28;20422;-71
2023/08/21 01:43:54;;;;;;;6.40;6.00;;;;;;;;;;5048792;28;20446;-72
2023/08/21 01:46:20;;;;;;;12.43;6.40;;;;;;;;;;5045851;28;20984;-71
2023/08/21 01:48:46;;;;;;;7.27;6.53;;;;;;;;;;5046857;28;20446;-72
2023/08/21 01:51:12;;;;;;;9.13;6.20;;;;;;;;;;5047699;28;20442;-72
2023/08/21 01:53:38;;;;;;;5.87;5.47;;;;;;;;;;5048811;28;20493;-71
2023/08/21 01:56:04;;;;;;;6.07;5.80;;;;;;;;;;5041587;28;20936;-70
2023/08/21 01:58:30;;;;;;;7.07;6.40;;;;;;;;;;5047135;28;20875;-71
2023/08/21 02:00:56;;;;;;;10.97;6.60;;;;;;;;;;5044347;28;20470;-73
2023/08/21 02:03:22;;;;;;;6.70;6.27;;;;;;;;;;5047438;28;20457;-69
2023/08/21 02:05:48;;;;;;;7.30;6.70;;;;;;;;;;5046736;28;20530;-72
2023/08/21 02:08:14;;;;;;;7.23;5.80;;;;;;;;;;5045523;28;20533;-69
2023/08/21 02:10:50;;;;;;;7.13;6.73;;;;;;;;;;5046131;28;20195;-71
2023/08/21 02:13:16;;;;;;;7.50;6.90;;;;;;;;;;5047839;28;20473;-72
2023/08/21 02:15:42;;;;;;;12.10;6.83;;;;;;;;;;5048896;28;21031;-73
2023/08/21 02:18:08;;;;;;;6.00;5.80;;;;;;;;;;5045344;28;20533;-73
2023/08/21 02:20:34;;;;;;;6.70;6.20;;;;;;;;;;5047866;28;20453;-72
2023/08/21 02:23:00;;;;;;;7.57;6.97;;;;;;;;;;5048542;28;20211;-72
2023/08/21 02:25:26;;;;;;;7.20;6.50;;;;;;;;;;5043368;28;21100;-72
2023/08/21 02:27:51;;;;;;;8.80;6.60;;;;;;;;;;5049323;28;20422;-72
2023/08/21 02:30:17;;;;;;;8.70;7.23;;;;;;;;;;5049546;28;20512;-73
2023/08/21 02:32:44;;;;;;;7.17;6.63;;;;;;;;;;5046708;28;20192;-71
2023/08/21 02:35:10;;;;;;;16.90;6.37;;;;;;;;;;5045962;28;20445;-73
2023/08/21 02:37:38;;;;;;;9.30;6.20;;;;;;;;;;5048594;28;20483;-73
2023/08/21 02:40:06;;;;;;;7.27;6.50;;;;;;;;;;5048222;28;20435;-69
2023/08/21 02:42:32;;;;;;;7.50;6.67;;;;;;;;;;5049112;28;20792;-70
2023/08/21 02:44:58;;;;;;;14.80;7.33;;;;;;;;;;5049180;28;20468;-71
2023/08/21 02:47:24;;;;;;;7.40;6.70;;;;;;;;;;5046141;28;20758;-73
2023/08/21 02:49:50;;;;;;;9.03;7.17;;;;;;;;;;5046438;28;20496;-70
2023/08/21 02:52:18;;;;;;;11.63;6.83;;;;;;;;;;5047451;28;20494;-71
2023/08/21 02:54:44;;;;;;;5.63;5.17;;;;;;;;;;5046008;28;20223;-72
2023/08/21 02:57:10;;;;;;;8.13;7.33;;;;;;;;;;5049208;28;20468;-72
2023/08/21 02:59:36;;;;;;;9.97;7.23;;;;;;;;;;5046231;28;20187;-72
2023/08/21 03:02:01;;;;;;;8.80;6.87;;;;;;;;;;5045785;28;20453;-72
2023/08/21 03:04:27;;;;;;;7.77;6.70;;;;;;;;;;5046900;28;20199;-73
2023/08/21 03:06:53;;;;;;;7.63;7.07;;;;;;;;;;5048783;28;20632;-72
2023/08/21 03:09:19;;;;;;;7.70;6.57;;;;;;;;;;5047155;28;20801;-72
2023/08/21 03:11:45;;;;;;;11.20;7.37;;;;;;;;;;5043117;28;20495;-72
2023/08/21 03:14:11;;;;;;;10.20;7.00;;;;;;;;;;5049008;28;20478;-72
2023/08/21 03:16:37;;;;;;;7.70;6.90;;;;;;;;;;5048988;28;20940;-70
2023/08/21 03:19:03;;;;;;;11.43;7.30;;;;;;;;;;5048802;28;20766;-71
2023/08/21 03:21:29;;;;;;;8.07;7.00;;;;;;;;;;5047545;28;20762;-71
2023/08/21 03:23:56;;;;;;;7.13;6.50;;;;;;;;;;5048674;28;20562;-71
2023/08/21 03:26:22;;;;;;;7.30;6.63;;;;;;;;;;5046143;28;20932;-72
2023/08/21 03:28:48;;;;;;;7.50;6.80;;;;;;;;;;5047930;28;20426;-72
2023/08/21 03:31:15;;;;;;;7.63;7.03;;;;;;;;;;5048930;28;20778;-70
2023/08/21 03:33:40;;;;;;;6.83;6.23;;;;;;;;;;5046995;28;20466;-71
2023/08/21 03:36:07;;;;;;;6.87;5.70;;;;;;;;;;5049122;28;20464;-69
2023/08/21 03:38:33;;;;;;;7.30;6.67;;;;;;;;;;5048155;28;20440;-71
2023/08/21 03:40:59;;;;;;;7.20;6.50;;;;;;;;;;5044192;28;20427;-69
2023/08/21 03:43:25;;;;;;;11.03;7.27;;;;;;;;;;5046668;28;21017;-72
2023/08/21 03:45:51;;;;;;;7.23;6.60;;;;;;;;;;5047862;28;20454;-72
2023/08/21 03:48:17;;;;;;;6.40;6.10;;;;;;;;;;5046147;28;20449;-71
2023/08/21 03:50:43;;;;;;;9.23;7.10;;;;;;;;;;5047880;28;20930;-72
2023/08/21 03:53:09;;;;;;;7.57;6.90;;;;;;;;;;5047490;28;20919;-71
2023/08/21 03:55:35;;;;;;;6.63;6.33;;;;;;;;;;5048255;28;20526;-70
2023/08/21 03:58:01;;;;;;;11.73;7.30;;;;;;;;;;5047391;28;20958;-72
2023/08/21 04:00:27;;;;;;;8.43;7.73;;;;;;;;;;5044886;28;20911;-71
2023/08/21 04:02:53;;;;;;;8.50;7.00;;;;;;;;;;5045360;28;20529;-71
2023/08/21 04:05:19;;;;;;;7.37;6.77;;;;;;;;;;5048788;28;20418;-70
2023/08/21 04:07:45;;;;;;;8.77;8.07;;;;;;;;;;5047839;28;20969;-72
2023/08/21 04:10:11;;;;;;;8.73;6.53;;;;;;;;;;5044434;28;20517;-73
2023/08/21 04:12:37;;;;;;;7.60;7.13;;;;;;;;;;5046364;28;20767;-72
2023/08/21 04:15:03;;;;;;;7.20;6.70;;;;;;;;;;5048046;28;20191;-72
2023/08/21 04:17:29;;;;;;;8.20;7.00;;;;;;;;;;5045899;28;20430;-74
2023/08/21 04:19:55;;;;;;;8.73;7.87;;;;;;;;;;5049008;28;20453;-71
2023/08/21 04:22:21;;;;;;;7.67;7.27;;;;;;;;;;5051593;28;20511;-73
2023/08/21 04:24:47;;;;;;;7.27;6.77;;;;;;;;;;5047879;28;20485;-72
2023/08/21 04:27:13;;;;;;;7.30;6.70;;;;;;;;;;5044339;28;20450;-70
2023/08/21 04:29:40;;;;;;;8.00;7.50;;;;;;;;;;5042735;28;20436;-71
2023/08/21 04:32:06;;;;;;;7.93;6.50;;;;;;;;;;5044730;28;20196;-71
2023/08/21 04:34:32;;;;;;;8.27;7.13;;;;;;;;;;5049622;28;21016;-72
2023/08/21 04:36:58;;;;;;;6.43;5.97;;;;;;;;;;5043490;28;20807;-69
2023/08/21 04:39:25;;;;;;;9.63;8.10;;;;;;;;;;5048977;28;21485;-70
2023/08/21 04:41:52;;;;;;;7.63;6.50;;;;;;;;;;5048948;28;20641;-69
2023/08/21 04:44:18;;;;;;;8.20;7.40;;;;;;;;;;5044725;28;20527;-71
2023/08/21 04:46:44;;;;;;;6.87;6.40;;;;;;;;;;5047786;28;20426;-68
2023/08/21 04:49:11;;;;;;;7.47;6.97;;;;;;;;;;5049811;28;20964;-69
2023/08/21 04:51:37;;;;;;;7.97;7.17;;;;;;;;;;5050548;28;20425;-72
2023/08/21 04:54:03;;;;;;;8.10;7.40;;;;;;;;;;5047704;28;20485;-70
2023/08/21 04:56:29;;;;;;;7.87;7.37;;;;;;;;;;5046054;28;20438;-71
2023/08/21 04:58:55;;;;;;;7.60;6.90;;;;;;;;;;5048812;28;20507;-72
2023/08/21 05:01:21;;;;;;;10.83;7.13;;;;;;;;;;5049232;28;20965;-70
2023/08/21 05:03:47;;;;;;;8.43;7.77;;;;;;;;;;5043103;28;20450;-72
2023/08/21 05:06:14;;;;;;;7.13;6.50;;;;;;;;;;5045126;28;20191;-73
2023/08/21 05:08:40;;;;;;;9.73;6.33;;;;;;;;;;5048050;28;20442;-72
2023/08/21 05:11:06;;;;;;;9.83;6.70;;;;;;;;;;5049174;28;20797;-71
2023/08/21 05:13:32;;;;;;;7.97;6.10;;;;;;;;;;5047980;28;20559;-69
2023/08/21 05:15:58;;;;;;;6.80;6.40;;;;;;;;;;5046896;28;21021;-70
2023/08/21 05:18:25;;;;;;;6.40;6.10;;;;;;;;;;5046834;28;20930;-70
2023/08/21 05:20:53;;;;;;;6.80;6.40;;;;;;;;;;5048312;28;20434;-72
2023/08/21 05:23:18;;;;;;;7.83;7.23;;;;;;;;;;5047394;28;20571;-71
2023/08/21 05:25:45;;;;;;;9.83;7.00;;;;;;;;;;5047600;28;20531;-70
2023/08/21 05:28:11;;;;;;;7.93;7.43;;;;;;;;;;5043976;28;20815;-72
2023/08/21 05:30:37;;;;;;;8.90;7.87;;;;;;;;;;5045002;28;20443;-72
2023/08/21 05:33:03;;;;;;;7.50;6.90;;;;;;;;;;5045949;28;20903;-70
2023/08/21 05:35:33;;;;;;;14.53;7.27;;;;;;;;;;5047588;28;20445;-71
2023/08/21 05:37:58;;;;;;;7.20;6.90;;;;;;;;;;5050423;28;20437;-70
2023/08/21 05:40:24;;;;;;;8.07;7.47;;;;;;;;;;5044202;28;20525;-70
2023/08/21 05:42:50;;;;;;;7.60;7.20;;;;;;;;;;5047107;28;20188;-70
2023/08/21 05:45:16;;;;;;;12.13;7.13;;;;;;;;;;5048545;28;20195;-70
2023/08/21 05:47:42;;;;;;;9.30;7.97;;;;;;;;;;5045297;28;20537;-71
2023/08/21 05:50:09;;;;;;;9.77;7.37;;;;;;;;;;5047218;28;20509;-69
2023/08/21 05:52:35;;;;;;;17.17;8.07;;;;;;;;;;5045968;28;20482;-70
2023/08/21 05:55:01;;;;;;;7.97;7.20;;;;;;;;;;5047889;28;20543;-69
2023/08/21 05:57:27;;;;;;;9.37;6.60;;;;;;;;;;5048289;28;20426;-71
2023/08/21 05:59:53;;;;;;;8.33;7.30;;;;;;;;;;5047388;28;20449;-71
2023/08/21 06:02:19;;;;;;;9.57;6.97;;;;;;;;;;5045532;28;20446;-70
2023/08/21 06:04:46;;;;;;;7.83;7.30;;;;;;;;;;5048178;28;20187;-69
2023/08/21 06:07:12;;;;;;;18.17;7.57;;;;;;;;;;5045826;28;20847;-72
2023/08/21 06:09:38;;;;;;;10.70;6.70;;;;;;;;;;5047661;28;20456;-69
2023/08/21 06:12:04;;;;;;;12.73;7.47;;;;;;;;;;5047361;28;20666;-69
2023/08/21 06:14:30;;;;;;;12.90;7.87;;;;;;;;;;5046620;28;20488;-69
2023/08/21 06:16:57;;;;;;;8.90;8.00;;;;;;;;;;5049781;28;20422;-69
2023/08/21 06:19:23;;;;;;;9.63;8.23;;;;;;;;;;5046725;28;20825;-69
2023/08/21 06:21:49;;;;;;;10.97;6.60;;;;;;;;;;5042832;28;20444;-69
2023/08/21 06:24:15;;;;;;;9.10;7.70;;;;;;;;;;5038841;28;20580;-69
2023/08/21 06:26:41;;;;;;;12.80;8.00;;;;;;;;;;5048184;28;20473;-69
2023/08/21 06:29:07;;;;;;;8.90;7.77;;;;;;;;;;5048591;28;20434;-72
2023/08/21 06:31:33;;;;;;;10.80;7.20;;;;;;;;;;5046859;28;20792;-69
2023/08/21 06:33:59;;;;;;;9.27;8.37;;;;;;;;;;5048683;28;20593;-69
2023/08/21 06:36:25;;;;;;;11.10;7.77;;;;;;;;;;5045938;28;20589;-68
2023/08/21 06:38:51;;;;;;;9.30;8.60;;;;;;;;;;5046342;28;20535;-69
2023/08/21 06:41:16;;;;;;;19.27;8.43;;;;;;;;;;5040887;28;20426;-68
2023/08/21 06:43:42;;;;;;;15.60;8.00;;;;;;;;;;5047392;28;20212;-69
2023/08/21 06:46:08;;;;;;;9.53;8.73;;;;;;;;;;5043085;28;20805;-68
2023/08/21 06:48:35;;;;;;;9.70;9.00;;;;;;;;;;5043166;28;20453;-68
2023/08/21 06:51:02;;;;;;;14.87;9.00;;;;;;;;;;5046773;28;20191;-69
2023/08/21 06:53:28;;;;;;;9.83;8.93;;;;;;;;;;5045324;28;20557;-69
2023/08/21 06:55:54;;;;;;;9.97;8.97;;;;;;;;;;5046343;28;20476;-69
2023/08/21 06:58:20;;;;;;;9.57;8.70;;;;;;;;;;5047200;28;20446;-69
2023/08/21 07:00:46;;;;;;;9.27;8.57;;;;;;;;;;5047575;28;20509;-68
2023/08/21 07:03:12;;;;;;;13.13;8.50;;;;;;;;;;5045108;28;20934;-69
2023/08/21 07:05:38;;;;;;;8.73;8.03;;;;;;;;;;5036732;28;20587;-68
2023/08/21 07:08:05;;;;;;;9.00;8.30;;;;;;;;;;5043164;28;20548;-69
2023/08/21 07:10:37;;;;;;;9.50;8.60;;;;;;;;;;5047105;28;20527;-70
2023/08/21 07:13:03;;;;;;;11.83;7.90;;;;;;;;;;5043258;28;20549;-69
2023/08/21 07:15:29;;;;;;;18.37;7.80;;;;;;;;;;5045341;28;20457;-71
2023/08/21 07:17:55;;;;;;;8.10;7.50;;;;;;;;;;5047018;28;20434;-69
2023/08/21 07:20:22;;;;;;;8.57;7.23;;;;;;;;;;5040212;28;20449;-68
2023/08/21 07:22:49;;;;;;;8.27;7.57;;;;;;;;;;5043922;28;21069;-68
2023/08/21 07:25:15;;;;;;;6.83;6.20;;;;;;;;;;5045105;28;20563;-69
2023/08/21 07:27:41;;;;;;;7.83;7.13;;;;;;;;;;5046239;28;20941;-68
2023/08/21 07:30:07;;;;;;;10.13;6.07;;;;;;;;;;5043127;28;20466;-68
2023/08/21 07:32:33;;;;;;;7.43;7.07;;;;;;;;;;5046683;28;20449;-69
2023/08/21 07:34:59;;;;;;;10.53;6.37;;;;;;;;;;5043189;28;20489;-69
2023/08/21 07:37:25;;;;;;;7.97;7.50;;;;;;;;;;5046834;28;20179;-68
2023/08/21 07:39:53;;;;;;;19.40;7.87;;;;;;;;;;5045431;28;20442;-67
2023/08/21 07:42:18;;;;;;;7.67;6.90;;;;;;;;;;5049345;28;20789;-68
2023/08/21 07:44:46;;;;;;;13.80;7.83;;;;;;;;;;5041340;28;20446;-69
2023/08/21 07:47:12;;;;;;;7.97;7.27;;;;;;;;;;5045109;28;20442;-68
2023/08/21 07:49:38;;;;;;;10.50;6.80;;;;;;;;;;5048185;28;20480;-68
2023/08/21 07:52:04;;;;;;;10.57;8.50;;;;;;;;;;5050615;28;20819;-69
2023/08/21 07:54:30;;;;;;;7.40;6.50;;;;;;;;;;5049681;28;20478;-68
2023/08/21 07:56:56;;;;;;;8.17;7.37;;;;;;;;;;5029738;28;20453;-68
2023/08/21 07:59:22;;;;;;;9.90;9.10;;;;;;;;;;5049217;28;20495;-69
2023/08/21 08:01:48;;;;;;;8.20;7.60;;;;;;;;;;5044833;28;20287;-68
2023/08/21 08:04:15;;;;;;;6.40;6.10;;;;;;;;;;5048556;28;20450;-70
2023/08/21 08:06:41;;;;;;;11.40;7.80;;;;;;;;;;5049421;28;20426;-69
2023/08/21 08:09:07;;;;;;;8.07;7.33;;;;;;;;;;5043042;28;20442;-69
2023/08/21 08:11:33;;;;;;;19.83;8.60;;;;;;;;;;5051178;28;20864;-68
2023/08/21 08:13:59;;;;;;;17.90;7.33;;;;;;;;;;5047968;28;20486;-69
2023/08/21 08:16:25;;;;;;;7.77;7.03;;;;;;;;;;5035295;28;20434;-68
2023/08/21 08:18:51;;;;;;;8.63;8.03;;;;;;;;;;5048084;28;20448;-68
2023/08/21 08:21:17;;;;;;;11.60;8.07;;;;;;;;;;5042852;28;20447;-68
2023/08/21 08:23:43;;;;;;;8.00;7.40;;;;;;;;;;5050298;28;20540;-69
2023/08/21 08:26:09;;;;;;;8.67;7.90;;;;;;;;;;5050691;28;20414;-68
2023/08/21 08:28:35;;;;;;;8.00;7.40;;;;;;;;;;5050386;28;20477;-68
2023/08/21 08:31:02;;;;;;;10.33;8.33;;;;;;;;;;5047349;28;20937;-70
2023/08/21 08:33:28;;;;;;;10.73;7.63;;;;;;;;;;5048321;28;20473;-68
2023/08/21 08:35:53;;;;;;;8.10;7.30;;;;;;;;;;5050310;28;20430;-68
2023/08/21 08:38:19;;;;;;;5.57;5.27;;;;;;;;;;5051953;28;20453;-68
2023/08/21 08:40:47;;;;;;;15.90;6.70;;;;;;;;;;5046809;28;20698;-69
2023/08/21 08:43:13;;;;;;;6.10;5.60;;;;;;;;;;5050520;28;20446;-68
2023/08/21 08:45:40;;;;;;;5.53;5.33;;;;;;;;;;5049502;28;20462;-68
2023/08/21 08:48:07;;;;;;;8.13;7.43;;;;;;;;;;5050112;28;20481;-68
2023/08/21 08:50:33;;;;;;;9.17;8.20;;;;;;;;;;5047412;28;20503;-68
2023/08/21 08:53:00;;;;;;;19.70;8.93;;;;;;;;;;5050121;28;20900;-68
2023/08/21 08:55:26;;;;;;;6.87;6.33;;;;;;;;;;5047872;28;20446;-68
2023/08/21 08:57:54;;;;;;;8.80;7.90;;;;;;;;;;5045058;28;20430;-68
2023/08/21 09:00:20;;;;;;;8.93;8.20;;;;;;;;;;5046406;28;20446;-69
2023/08/21 09:02:46;;;;;;;8.80;8.03;;;;;;;;;;5048039;28;20477;-69
2023/08/21 09:05:13;;;;;;;7.87;7.20;;;;;;;;;;5038030;28;20474;-68
2023/08/21 09:07:39;;;;;;;8.40;7.80;;;;;;;;;;5041194;28;20453;-69
2023/08/21 09:10:05;;;;;;;9.10;8.13;;;;;;;;;;5045256;28;20435;-69
2023/08/21 09:12:34;;;;;;;9.17;7.60;;;;;;;;;;5045881;28;20572;-72
2023/08/21 09:15:00;;;;;;;9.20;6.90;;;;;;;;;;5044574;28;22368;-69
2023/08/21 09:17:26;;;;;;;8.07;7.37;;;;;;;;;;5048235;28;20549;-69
2023/08/21 09:19:52;;;;;;;8.20;7.47;;;;;;;;;;5048344;28;20522;-68
2023/08/21 09:22:19;;;;;;;7.33;6.90;;;;;;;;;;5043338;28;20529;-70
2023/08/21 09:25:14;;;;;;;9.53;7.30;;;;;;;;;;5048322;28;20237;-68
2023/08/21 09:27:40;;;;;;;9.13;7.63;;;;;;;;;;5043904;28;20434;-69
2023/08/21 09:30:09;;;;;;;6.90;6.47;;;;;;;;;;5048834;28;20927;-68
2023/08/21 09:32:54;;;;;;;7.70;6.80;;;;;;;;;;5049289;28;20534;-68
2023/08/21 09:35:20;;;;;;;7.87;7.03;;;;;;;;;;5043814;28;20949;-70
2023/08/21 09:37:47;;;;;;;6.33;5.60;;;;;;;;;;5045553;28;20491;-69
2023/08/21 09:40:13;;;;;;;7.37;6.20;;;;;;;;;;5044805;28;20949;-68
2023/08/21 09:42:41;;;;;;;6.17;5.57;;;;;;;;;;5043659;28;20426;-69
2023/08/21 09:45:08;;;;;;;7.77;7.07;;;;;;;;;;5043678;28;20529;-68
2023/08/21 09:47:34;;;;;;;7.03;6.53;;;;;;;;;;5046463;28;20474;-68
2023/08/21 09:50:00;;;;;;;9.33;6.77;;;;;;;;;;5045410;28;20450;-69
2023/08/21 09:52:26;;;;;;;9.80;5.77;;;;;;;;;;5043685;28;20468;-68
2023/08/21 09:54:54;;;;;;;11.77;7.37;;;;;;;;;;5044942;28;20489;-69
2023/08/21 09:57:22;;;;;;;6.63;6.00;;;;;;;;;;5046693;28;20521;-68
2023/08/21 09:59:49;;;;;;;7.47;6.30;;;;;;;;;;5046300;28;20450;-69
2023/08/21 10:02:15;;;;;;;6.30;6.00;;;;;;;;;;5048481;28;20449;-68
2023/08/21 10:04:43;;;;;;;6.73;6.43;;;;;;;;;;5043621;28;20475;-70
2023/08/21 10:07:10;;;;;;;8.53;7.80;;;;;;;;;;5048182;28;20818;-68
2023/08/21 10:09:38;;;;;;;7.20;5.73;;;;;;;;;;5050397;28;20437;-68
2023/08/21 10:12:04;;;;;;;5.97;5.47;;;;;;;;;;5050239;28;20437;-69
2023/08/21 10:14:30;;;;;;;12.13;6.33;;;;;;;;;;5045070;28;21013;-68
2023/08/21 10:16:56;;;;;;;12.67;5.90;;;;;;;;;;5040188;28;20427;-69
2023/08/21 10:19:22;;;;;;;7.60;6.90;;;;;;;;;;5048707;28;20936;-70
2023/08/21 10:21:49;;;;;;;7.97;6.80;;;;;;;;;;5048571;28;20411;-69
2023/08/21 10:24:27;;;;;;;14.30;8.17;;;;;;;;;;5046313;28;20450;-68
2023/08/21 10:26:53;;;;;;;12.10;6.80;;;;;;;;;;5043735;28;20515;-69
2023/08/21 10:29:19;;;;;;;18.37;7.57;;;;;;;;;;5047366;28;20807;-69
2023/08/21 10:31:45;;;;;;;7.60;7.00;;;;;;;;;;5046029;28;20450;-69
2023/08/21 10:34:12;;;;;;;6.70;6.40;;;;;;;;;;5047092;28;20481;-69
2023/08/21 10:36:39;;;;;;;12.20;7.53;;;;;;;;;;5044950;28;20480;-69
2023/08/21 10:39:12;;;;;;;8.93;6.53;;;;;;;;;;5047556;28;20763;-69
2023/08/21 10:41:38;;;;;;;10.10;6.47;;;;;;;;;;5047942;28;20434;-69
2023/08/21 10:44:06;;;;;;;10.67;6.37;;;;;;;;;;5047326;28;21011;-69
2023/08/21 10:46:51;;;;;;;5.90;5.40;;;;;;;;;;5045299;28;20185;-68
2023/08/21 10:49:17;;;;;;;13.20;6.80;;;;;;;;;;5042514;28;20431;-67
2023/08/21 10:51:44;;;;;;;10.40;7.10;;;;;;;;;;5037210;28;20500;-68
2023/08/21 10:54:16;;;;;;;6.22;5.72;;;;;;;;;;5044933;28;20507;-63
2023/08/21 10:56:42;;;;;;;16.10;6.20;;;;;;;;;;5044707;28;20497;-68
2023/08/21 10:59:08;;;;;;;7.70;6.90;;;;;;;;;;5043386;28;20204;-68
2023/08/21 11:01:44;;;;;;;7.87;7.20;;;;;;;;;;5042582;28;20434;-69
2023/08/21 11:04:11;;;;;;;6.90;6.40;;;;;;;;;;5043926;28;20808;-68
2023/08/21 11:06:37;;;;;;;10.27;7.10;;;;;;;;;;5042187;28;20994;-68
2023/08/21 11:09:04;;;;;;;7.20;6.53;;;;;;;;;;5043386;28;20534;-71
2023/08/21 11:11:30;;;;;;;11.67;7.03;;;;;;;;;;5043350;28;20485;-69
2023/08/21 11:13:56;;;;;;;7.20;6.80;;;;;;;;;;5041881;28;20493;-68
2023/08/21 11:16:22;;;;;;;8.00;6.67;;;;;;;;;;5042003;28;20424;-69
2023/08/21 11:18:48;;;;;;;17.37;5.80;;;;;;;;;;5042770;28;20470;-69
2023/08/21 11:21:14;;;;;;;6.37;6.07;;;;;;;;;;5041653;28;20692;-68
2023/08/21 11:23:41;;;;;;;16.43;6.57;;;;;;;;;;5042920;28;20643;-69
2023/08/21 11:26:07;;;;;;;9.20;7.03;;;;;;;;;;5045535;28;20652;-69
2023/08/21 11:28:33;;;;;;;11.63;6.70;;;;;;;;;;5046707;28;20576;-71
2023/08/21 11:30:59;;;;;;;8.30;7.17;;;;;;;;;;5044951;28;20517;-70
2023/08/21 11:33:26;;;;;;;21.40;6.40;;;;;;;;;;5050340;28;20461;-69
2023/08/21 11:35:53;;;;;;;7.60;6.90;;;;;;;;;;5049652;28;20834;-69
2023/08/21 11:38:23;;;;;;;6.87;6.33;;;;;;;;;;5042840;28;21113;-70
2023/08/21 11:40:59;;;;;;;6.63;6.00;;;;;;;;;;5048392;28;20506;-69
2023/08/21 11:43:54;;;;;;;6.43;6.00;;;;;;;;;;5049317;28;20413;-70
2023/08/21 11:46:20;;;;;;;9.67;6.43;;;;;;;;;;5041873;28;20430;-69
2023/08/21 11:48:46;;;;;;;8.03;6.47;;;;;;;;;;5047511;28;20429;-69
2023/08/21 11:51:12;;;;;;;6.97;6.20;;;;;;;;;;5048669;28;20426;-69
2023/08/21 11:53:39;;;;;;;6.83;6.33;;;;;;;;;;5051049;28;20477;-69
2023/08/21 11:56:12;;;;;;;5.10;4.80;;;;;;;;;;5048868;28;20647;-69
2023/08/21 11:58:41;;;;;;;6.50;5.97;;;;;;;;;;5049273;28;20941;-69
2023/08/21 12:01:07;;;;;;;6.30;6.00;;;;;;;;;;5047955;28;20440;-69
2023/08/21 12:03:37;;;;;;;7.80;7.10;;;;;;;;;;5050366;28;20849;-77
2023/08/21 12:06:11;;;;;;;6.33;6.03;;;;;;;;;;5047985;28;20466;-69
2023/08/21 12:08:37;;;;;;;5.30;5.10;;;;;;;;;;5047168;28;20457;-69
2023/08/21 12:11:03;;;;;;;11.67;6.50;;;;;;;;;;5047967;28;20437;-69
2023/08/21 12:13:30;;;;;;;7.43;5.40;;;;;;;;;;5031490;28;20576;-70
2023/08/21 12:15:56;;;;;;;9.93;5.60;;;;;;;;;;5042599;28;20430;-69
2023/08/21 12:18:22;;;;;;;6.67;6.10;;;;;;;;;;5049096;28;22101;-69
2023/08/21 12:20:48;;;;;;;6.37;5.77;;;;;;;;;;5050512;28;20426;-69
2023/08/21 12:23:14;;;;;;;6.70;6.00;;;;;;;;;;5050925;28;20430;-69
2023/08/21 12:25:40;;;;;;;6.57;5.80;;;;;;;;;;5051259;28;20418;-69
2023/08/21 12:28:06;;;;;;;5.50;5.10;;;;;;;;;;5048923;28;20274;-68
2023/08/21 12:30:32;;;;;;;8.40;6.70;;;;;;;;;;5045107;28;20430;-69
2023/08/21 12:32:58;;;;;;;8.93;6.60;;;;;;;;;;5051497;28;20476;-69
2023/08/21 12:35:24;;;;;;;6.70;6.03;;;;;;;;;;5050960;28;20188;-69
2023/08/21 12:37:50;;;;;;;13.17;6.47;;;;;;;;;;5048511;28;20438;-69
2023/08/21 12:40:16;;;;;;;9.30;6.13;;;;;;;;;;5044643;28;20206;-69
2023/08/21 12:42:42;;;;;;;6.77;6.40;;;;;;;;;;5049797;28;20210;-70
2023/08/21 12:45:08;;;;;;;6.90;6.20;;;;;;;;;;5052255;28;20176;-69
2023/08/21 12:47:34;;;;;;;7.53;6.40;;;;;;;;;;5051878;28;20557;-69
2023/08/21 12:50:00;;;;;;;16.53;6.60;;;;;;;;;;5049520;28;20948;-70
2023/08/21 12:52:26;;;;;;;5.20;4.97;;;;;;;;;;5047961;28;20477;-69
2023/08/21 12:54:52;;;;;;;9.67;6.50;;;;;;;;;;5049276;28;20485;-69
2023/08/21 12:57:18;;;;;;;5.93;5.47;;;;;;;;;;5050590;28;20187;-70
2023/08/21 12:59:44;;;;;;;6.90;6.40;;;;;;;;;;5049435;28;20450;-69
2023/08/21 13:02:10;;;;;;;10.43;5.70;;;;;;;;;;5048835;28;20423;-70
2023/08/21 13:04:35;;;;;;;8.00;7.30;;;;;;;;;;5050875;28;20995;-70
2023/08/21 13:07:03;;;;;;;6.57;6.07;;;;;;;;;;5029587;28;20718;-70
2023/08/21 13:09:29;;;;;;;7.87;6.20;;;;;;;;;;5049057;28;20464;-71
2023/08/21 13:11:55;;;;;;;18.97;6.13;;;;;;;;;;5051095;28;20911;-70
2023/08/21 13:14:21;;;;;;;6.77;6.23;;;;;;;;;;5051154;28;20883;-69
2023/08/21 13:16:47;;;;;;;16.93;6.40;;;;;;;;;;5049057;28;20430;-69
2023/08/21 13:19:13;;;;;;;6.77;6.40;;;;;;;;;;5049236;28;20683;-70
2023/08/21 13:21:39;;;;;;;7.73;4.80;;;;;;;;;;5050222;28;20430;-69
2023/08/21 13:24:05;;;;;;;8.47;5.80;;;;;;;;;;5051416;28;20462;-69
2023/08/21 13:26:32;;;;;;;13.47;7.43;;;;;;;;;;5049868;28;20428;-69
2023/08/21 13:28:58;;;;;;;13.37;6.07;;;;;;;;;;5050186;28;20946;-70
2023/08/21 13:31:24;;;;;;;17.97;5.50;;;;;;;;;;5046472;28;20415;-70
2023/08/21 13:33:51;;;;;;;5.70;5.40;;;;;;;;;;5047794;28;21004;-69
2023/08/21 13:36:18;;;;;;;6.20;5.90;;;;;;;;;;5049446;28;20462;-68
2023/08/21 13:38:44;;;;;;;12.70;5.87;;;;;;;;;;5050774;28;20512;-72
2023/08/21 13:41:10;;;;;;;6.80;5.40;;;;;;;;;;5051237;28;20407;-70
2023/08/21 13:43:37;;;;;;;6.00;5.60;;;;;;;;;;5049944;28;20496;-69
2023/08/21 13:46:06;;;;;;;11.60;5.20;;;;;;;;;;5049197;28;20426;-69
2023/08/21 13:48:32;;;;;;;5.80;4.90;;;;;;;;;;5050578;28;20415;-71
2023/08/21 13:50:58;;;;;;;7.70;5.30;;;;;;;;;;5049401;28;20946;-69
2023/08/21 13:53:24;;;;;;;5.60;5.30;;;;;;;;;;5049610;28;20473;-70
2023/08/21 13:55:50;;;;;;;5.80;5.30;;;;;;;;;;5048812;28;20449;-69
2023/08/21 13:58:17;;;;;;;4.57;4.27;;;;;;;;;;5044636;28;20438;-68
2023/08/21 14:00:44;;;;;;;7.40;4.47;;;;;;;;;;5048633;28;21021;-69
2023/08/21 14:03:10;;;;;;;6.43;5.63;;;;;;;;;;5045908;28;20866;-70
2023/08/21 14:05:36;;;;;;;5.20;4.73;;;;;;;;;;5048599;28;20430;-71
2023/08/21 14:08:02;;;;;;;4.83;4.43;;;;;;;;;;5047929;28;20422;-68
2023/08/21 14:10:30;;;;;;;6.17;4.87;;;;;;;;;;5047538;28;20511;-69
2023/08/21 14:12:57;;;;;;;5.67;5.10;;;;;;;;;;5048673;28;20440;-69
2023/08/21 14:15:23;;;;;;;6.10;5.07;;;;;;;;;;5042175;28;20482;-68
2023/08/21 14:17:49;;;;;;;8.23;5.10;;;;;;;;;;5049157;28;21370;-68
2023/08/21 14:20:17;;;;;;;5.13;4.80;;;;;;;;;;5049352;28;20434;-68
2023/08/21 14:22:43;;;;;;;5.07;4.70;;;;;;;;;;5048135;28;20426;-69
2023/08/21 14:25:09;;;;;;;5.50;4.43;;;;;;;;;;5046366;28;20434;-68
2023/08/21 14:27:35;;;;;;;5.80;4.10;;;;;;;;;;5047237;28;20429;-68
2023/08/21 14:30:01;;;;;;;6.43;4.97;;;;;;;;;;5047775;28;20423;-68
2023/08/21 14:32:27;;;;;;;4.40;4.07;;;;;;;;;;5045194;28;20894;-68
2023/08/21 14:34:53;;;;;;;6.20;4.67;;;;;;;;;;5047022;28;20493;-69
2023/08/21 14:37:20;;;;;;;4.20;4.07;;;;;;;;;;5045078;28;20430;-68